createdAt,value
2018-07-01T00:04:10.573Z,1.00
2018-07-01T00:09:14.305Z,1.00
2018-07-01T00:14:18.359Z,1.00
2018-07-01T00:19:21.620Z,0.50
2018-07-01T00:24:25.498Z,1.40
2018-07-01T00:29:29.213Z,0.00
2018-07-01T00:34:33.045Z,0.75
2018-07-01T00:39:36.763Z,1.00
2018-07-01T00:44:40.627Z,1.20
2018-07-01T00:49:44.316Z,1.20
2018-07-01T00:54:48.223Z,1.40
2018-07-01T00:59:51.983Z,2.00
2018-07-01T01:04:55.921Z,1.00
2018-07-01T01:09:59.584Z,1.00
2018-07-01T01:15:03.622Z,2.00
2018-07-01T01:20:07.476Z,1.00
2018-07-01T01:25:11.228Z,1.00
2018-07-01T01:30:15.081Z,1.00
2018-07-01T01:35:19.417Z,1.00
2018-07-01T01:40:26.631Z,2.00
2018-07-01T01:45:36.040Z,1.00
2018-07-01T01:50:45.043Z,1.00
2018-07-01T01:55:53.789Z,1.50
2018-07-01T02:01:02.213Z,1.80
2018-07-01T02:06:41.944Z,0.60
2018-07-01T02:11:48.136Z,1.50
2018-07-01T02:16:55.228Z,1.25
2018-07-01T02:21:59.807Z,1.00
2018-07-01T02:27:03.413Z,1.00
2018-07-01T02:32:07.639Z,1.75
2018-07-01T02:37:11.274Z,2.00
2018-07-01T02:42:14.947Z,2.00
2018-07-01T02:47:18.610Z,1.00
2018-07-01T02:52:22.482Z,1.80
2018-07-01T02:57:25.811Z,1.00
2018-07-01T03:02:30.069Z,2.00
2018-07-01T03:07:33.831Z,2.00
2018-07-01T03:12:37.174Z,1.60
2018-07-01T03:17:40.919Z,2.20
2018-07-01T03:22:44.680Z,1.00
2018-07-01T03:27:48.330Z,1.00
2018-07-01T03:32:52.141Z,1.40
2018-07-01T03:37:55.727Z,1.50
2018-07-01T03:42:59.423Z,1.00
2018-07-01T03:48:03.461Z,0.75
2018-07-01T03:53:07.140Z,1.00
2018-07-01T03:58:10.832Z,1.00
2018-07-01T04:03:14.527Z,0.80
2018-07-01T04:08:18.179Z,0.00
2018-07-01T04:13:22.211Z,1.00
2018-07-01T04:18:25.837Z,0.25
2018-07-01T04:23:29.982Z,0.40
2018-07-01T04:28:33.796Z,1.00
2018-07-01T04:33:37.403Z,1.00
2018-07-01T04:38:41.024Z,-0.20
2018-07-01T04:43:44.630Z,0.00
2018-07-01T04:48:48.156Z,0.00
2018-07-01T04:53:51.760Z,0.00
2018-07-01T04:58:55.382Z,0.80
2018-07-01T05:03:59.252Z,0.00
2018-07-01T05:09:02.965Z,0.00
2018-07-01T05:14:06.684Z,0.50
2018-07-01T05:19:10.863Z,0.00
2018-07-01T05:24:14.351Z,0.60
2018-07-01T05:29:18.064Z,0.00
2018-07-01T05:34:21.748Z,0.00
2018-07-01T05:39:25.608Z,0.00
2018-07-01T05:44:29.187Z,1.00
2018-07-01T05:49:32.871Z,0.75
2018-07-01T05:54:36.213Z,0.00
2018-07-01T05:59:39.893Z,0.00
2018-07-01T06:04:43.484Z,0.00
2018-07-01T06:09:47.282Z,0.00
2018-07-01T06:14:51.140Z,0.00
2018-07-01T06:19:54.758Z,0.00
2018-07-01T06:24:58.592Z,0.00
2018-07-01T06:30:02.426Z,0.00
2018-07-01T06:35:07.979Z,0.00
2018-07-01T06:40:11.658Z,0.80
2018-07-01T06:45:15.494Z,0.00
2018-07-01T06:50:19.207Z,0.00
2018-07-01T06:55:22.968Z,0.00
2018-07-01T07:00:26.924Z,0.00
2018-07-01T07:05:30.497Z,0.00
2018-07-01T07:10:34.246Z,0.00
2018-07-01T07:15:37.812Z,0.00
2018-07-01T07:20:41.776Z,0.00
2018-07-01T07:25:45.058Z,0.00
2018-07-01T07:30:48.701Z,0.00
2018-07-01T07:35:53.844Z,0.00
2018-07-01T07:40:57.449Z,-0.25
2018-07-01T07:46:01.043Z,0.00
2018-07-01T07:51:05.074Z,0.00
2018-07-01T07:56:09.217Z,0.00
2018-07-01T08:01:12.991Z,0.00
2018-07-01T08:06:16.771Z,0.00
2018-07-01T08:11:21.249Z,0.00
2018-07-01T08:16:24.837Z,0.25
2018-07-01T08:21:28.653Z,0.00
2018-07-01T08:26:32.306Z,0.00
2018-07-01T08:31:35.912Z,0.00
2018-07-01T08:36:39.516Z,0.00
2018-07-01T08:42:35.533Z,0.00
2018-07-01T08:47:39.280Z,0.60
2018-07-01T08:52:43.015Z,0.00
2018-07-01T08:57:46.715Z,0.00
2018-07-01T09:02:50.516Z,0.00
2018-07-01T09:07:54.441Z,0.40
2018-07-01T09:12:58.033Z,0.00
2018-07-01T09:18:04.045Z,-0.25
2018-07-01T09:23:08.005Z,0.00
2018-07-01T09:28:11.729Z,0.00
2018-07-01T09:33:15.101Z,0.00
2018-07-01T09:38:18.915Z,0.00
2018-07-01T09:43:22.717Z,0.00
2018-07-01T09:48:27.276Z,0.00
2018-07-01T09:53:31.298Z,0.00
2018-07-01T09:58:35.046Z,0.00
2018-07-01T10:03:38.716Z,0.00
2018-07-01T10:08:42.368Z,0.80
2018-07-01T10:13:46.211Z,3.00
2018-07-01T10:18:50.178Z,3.50
2018-07-01T10:23:54.115Z,1.75
2018-07-01T10:29:16.188Z,2.00
2018-07-01T10:34:19.934Z,1.75
2018-07-01T10:39:23.569Z,0.00
2018-07-01T10:44:27.276Z,0.00
2018-07-01T10:49:30.920Z,0.00
2018-07-01T10:54:35.645Z,0.00
2018-07-01T10:59:39.592Z,0.00
2018-07-01T11:04:43.282Z,0.00
2018-07-01T11:09:46.648Z,0.00
2018-07-01T11:14:51.261Z,0.00
2018-07-01T11:19:54.911Z,0.00
2018-07-01T11:24:58.963Z,0.00
2018-07-01T11:30:02.904Z,0.00
2018-07-01T11:35:07.673Z,0.00
2018-07-01T11:40:11.361Z,0.00
2018-07-01T11:45:15.036Z,0.00
2018-07-01T11:50:18.699Z,0.00
2018-07-01T11:55:22.536Z,0.00
2018-07-01T12:00:26.415Z,0.00
2018-07-01T12:05:30.158Z,0.00
2018-07-01T12:10:33.873Z,0.00
2018-07-01T12:15:37.636Z,0.00
2018-07-01T12:20:41.004Z,0.00
2018-07-01T12:25:44.813Z,0.00
2018-07-01T12:30:48.455Z,0.00
2018-07-01T12:35:51.842Z,0.00
2018-07-01T12:40:55.670Z,0.00
2018-07-01T12:45:59.403Z,0.00
2018-07-01T12:51:02.935Z,0.00
2018-07-01T12:56:06.671Z,0.00
2018-07-01T13:01:09.979Z,0.00
2018-07-01T13:06:13.260Z,0.00
2018-07-01T13:11:17.050Z,0.00
2018-07-01T13:16:20.962Z,0.00
2018-07-01T13:21:25.265Z,0.00
2018-07-01T13:26:28.933Z,0.00
2018-07-01T13:31:32.762Z,0.00
2018-07-01T13:36:36.564Z,0.00
2018-07-01T13:41:40.361Z,0.00
2018-07-01T13:46:44.041Z,0.00
2018-07-01T13:51:48.049Z,0.00
2018-07-01T13:56:51.863Z,0.00
2018-07-01T14:01:55.493Z,0.00
2018-07-01T14:06:59.344Z,0.00
2018-07-01T14:12:02.695Z,0.00
2018-07-01T14:17:06.768Z,0.75
2018-07-01T14:22:10.606Z,0.00
2018-07-01T14:27:14.256Z,0.00
2018-07-01T14:32:17.958Z,1.00
2018-07-01T14:37:21.541Z,0.50
2018-07-01T14:42:25.124Z,0.00
2018-07-01T14:47:28.828Z,0.00
2018-07-01T14:52:32.621Z,0.00
2018-07-01T14:57:35.907Z,0.00
2018-07-01T15:02:39.459Z,0.00
2018-07-01T15:07:43.069Z,0.00
2018-07-01T15:12:46.861Z,0.00
2018-07-01T15:17:50.505Z,0.00
2018-07-01T15:22:54.259Z,0.00
2018-07-01T15:27:58.140Z,0.00
2018-07-01T15:33:01.715Z,0.25
2018-07-01T15:38:05.346Z,0.00
2018-07-01T15:43:09.016Z,0.00
2018-07-01T15:48:13.083Z,0.00
2018-07-01T15:53:16.924Z,0.00
2018-07-01T15:58:20.911Z,0.00
2018-07-01T16:03:24.574Z,0.00
2018-07-01T16:06:48.183Z,0.00
2018-07-01T16:08:31.931Z,0.00
2018-07-01T16:10:16.296Z,0.00
2018-07-01T16:12:00.148Z,0.00
2018-07-01T16:13:44.096Z,0.00
2018-07-01T16:15:27.928Z,0.00
2018-07-01T16:17:11.920Z,0.00
2018-07-01T16:18:55.633Z,0.00
2018-07-01T16:23:59.127Z,0.00
2018-07-01T16:29:03.296Z,0.00
2018-07-01T16:34:07.180Z,0.00
2018-07-01T16:39:12.055Z,0.00
2018-07-01T16:44:15.761Z,0.00
2018-07-01T16:49:19.979Z,0.00
2018-07-01T16:54:23.759Z,0.00
2018-07-01T16:59:27.871Z,0.00
2018-07-01T17:04:31.793Z,0.00
2018-07-01T17:09:35.565Z,0.00
2018-07-01T17:14:40.158Z,0.00
2018-07-01T17:19:44.016Z,0.00
2018-07-01T17:24:47.775Z,0.00
2018-07-01T17:29:51.446Z,0.00
2018-07-01T17:34:55.089Z,0.00
2018-07-01T17:39:58.721Z,0.00
2018-07-01T17:45:03.327Z,0.00
2018-07-01T17:50:07.282Z,0.00
2018-07-01T17:55:11.163Z,0.00
2018-07-01T18:00:14.897Z,0.00
2018-07-01T18:05:19.305Z,0.00
2018-07-01T18:10:23.068Z,0.00
2018-07-01T18:15:26.675Z,0.00
2018-07-01T18:20:30.337Z,0.00
2018-07-01T18:25:34.079Z,0.00
2018-07-01T18:30:37.324Z,0.00
2018-07-01T18:35:41.357Z,0.00
2018-07-01T18:40:44.965Z,0.00
2018-07-01T18:45:48.603Z,0.00
2018-07-01T18:50:52.212Z,0.00
2018-07-01T18:55:55.973Z,0.00
2018-07-01T19:00:59.540Z,0.00
2018-07-01T19:06:03.646Z,0.00
2018-07-01T19:11:07.587Z,0.00
2018-07-01T19:16:11.270Z,0.00
2018-07-01T19:21:15.723Z,0.00
2018-07-01T19:26:20.078Z,0.00
2018-07-01T19:31:24.128Z,0.00
2018-07-01T19:36:28.306Z,0.00
2018-07-01T19:41:32.348Z,0.00
2018-07-01T19:46:36.057Z,0.00
2018-07-01T19:51:39.455Z,0.00
2018-07-01T19:56:43.126Z,0.00
2018-07-01T20:01:46.703Z,0.00
2018-07-01T20:06:50.012Z,0.00
2018-07-01T20:11:53.844Z,0.00
2018-07-01T20:16:57.425Z,0.00
2018-07-01T20:22:01.141Z,0.00
2018-07-01T20:27:05.497Z,0.00
2018-07-01T20:32:09.137Z,0.00
2018-07-01T20:37:12.747Z,0.00
2018-07-01T20:42:16.383Z,0.00
2018-07-01T20:51:51.384Z,0.00
2018-07-01T20:56:54.974Z,0.00
2018-07-01T21:01:58.949Z,0.00
2018-07-01T21:07:02.631Z,0.00
2018-07-01T21:12:06.532Z,0.00
2018-07-01T21:17:10.192Z,0.00
2018-07-01T21:22:13.764Z,0.00
2018-07-01T21:27:17.433Z,0.00
2018-07-01T21:32:21.045Z,0.25
2018-07-01T21:37:24.790Z,0.00
2018-07-01T21:42:28.387Z,0.00
2018-07-01T21:47:31.985Z,0.00
2018-07-01T21:52:35.686Z,0.00
2018-07-01T21:57:39.284Z,0.00
2018-07-01T22:02:42.711Z,0.00
2018-07-01T22:07:46.581Z,0.00
2018-07-01T22:12:56.141Z,0.60
2018-07-01T22:17:59.719Z,0.00
2018-07-01T22:23:03.317Z,0.00
2018-07-01T22:28:07.333Z,0.00
2018-07-01T22:33:11.527Z,0.00
2018-07-01T22:38:15.916Z,0.00
2018-07-01T22:43:20.439Z,0.00
2018-07-01T22:48:25.113Z,0.00
2018-07-01T22:53:29.225Z,0.00
2018-07-01T22:58:33.736Z,0.00
2018-07-01T23:03:37.475Z,0.00
2018-07-01T23:08:41.239Z,0.00
2018-07-01T23:13:46.488Z,0.00
2018-07-01T23:18:50.716Z,0.60
2018-07-01T23:23:54.639Z,0.20
2018-07-01T23:28:58.376Z,0.00
2018-07-01T23:34:02.872Z,1.00
2018-07-01T23:39:08.113Z,0.00
2018-07-01T23:44:13.395Z,0.25
2018-07-01T23:49:17.954Z,0.00
2018-07-01T23:54:22.577Z,0.00
2018-07-01T23:59:26.652Z,0.00
